sensor_id;sensor_type;location;lat;lon;timestamp;P1;durP1;ratioP1;P2;durP2;ratioP2
9234;SDS011;4652;42.716;23.218;2023-06-22T00:02:35;12.30;;;11.10;;
9234;SDS011;4652;42.716;23.218;2023-06-22T00:09:17;12.73;;;11.53;;
9234;SDS011;4652;42.716;23.218;2023-06-22T00:15:59;12.60;;;11.40;;
9234;SDS011;4652;42.716;23.218;2023-06-22T00:22:43;12.60;;;11.30;;
9234;SDS011;4652;42.716;23.218;2023-06-22T00:29:25;12.23;;;11.03;;
9234;SDS011;4652;42.716;23.218;2023-06-22T00:36:07;11.07;;;9.97;;
9234;SDS011;4652;42.716;23.218;2023-06-22T00:42:55;11.53;;;10.33;;
9234;SDS011;4652;42.716;23.218;2023-06-22T00:49:37;11.33;;;10.23;;
9234;SDS011;4652;42.716;23.218;2023-06-22T00:56:19;12.70;;;11.50;;
9234;SDS011;4652;42.716;23.218;2023-06-22T01:08:05;13.40;;;10.73;;
9234;SDS011;4652;42.716;23.218;2023-06-22T01:14:55;12.27;;;11.07;;
9234;SDS011;4652;42.716;23.218;2023-06-22T01:21:43;15.53;;;12.47;;
9234;SDS011;4652;42.716;23.218;2023-06-22T01:28:45;13.90;;;12.43;;
9234;SDS011;4652;42.716;23.218;2023-06-22T01:35:28;16.20;;;11.67;;
9234;SDS011;4652;42.716;23.218;2023-06-22T01:42:11;12.43;;;11.13;;
9234;SDS011;4652;42.716;23.218;2023-06-22T01:48:55;13.00;;;11.17;;
9234;SDS011;4652;42.716;23.218;2023-06-22T01:55:37;12.70;;;11.20;;
9234;SDS011;4652;42.716;23.218;2023-06-22T02:02:19;12.80;;;11.60;;
9234;SDS011;4652;42.716;23.218;2023-06-22T02:09:09;13.70;;;11.03;;
9234;SDS011;4652;42.716;23.218;2023-06-22T02:15:55;12.27;;;11.07;;
9234;SDS011;4652;42.716;23.218;2023-06-22T02:22:38;12.33;;;11.03;;
9234;SDS011;4652;42.716;23.218;2023-06-22T02:29:21;11.97;;;10.77;;
9234;SDS011;4652;42.716;23.218;2023-06-22T02:36:03;11.87;;;10.70;;
9234;SDS011;4652;42.716;23.218;2023-06-22T02:42:49;12.77;;;11.43;;
9234;SDS011;4652;42.716;23.218;2023-06-22T02:49:32;11.77;;;10.60;;
9234;SDS011;4652;42.716;23.218;2023-06-22T02:56:14;11.90;;;10.70;;
9234;SDS011;4652;42.716;23.218;2023-06-22T03:02:57;12.13;;;10.93;;
9234;SDS011;4652;42.716;23.218;2023-06-22T03:09:41;11.30;;;10.10;;
9234;SDS011;4652;42.716;23.218;2023-06-22T03:16:23;13.80;;;11.27;;
9234;SDS011;4652;42.716;23.218;2023-06-22T03:23:05;11.77;;;10.57;;
9234;SDS011;4652;42.716;23.218;2023-06-22T03:29:48;13.37;;;11.83;;
9234;SDS011;4652;42.716;23.218;2023-06-22T03:36:30;13.03;;;11.23;;
9234;SDS011;4652;42.716;23.218;2023-06-22T03:43:12;12.00;;;10.90;;
9234;SDS011;4652;42.716;23.218;2023-06-22T03:49:56;12.60;;;11.07;;
9234;SDS011;4652;42.716;23.218;2023-06-22T03:56:38;13.97;;;11.50;;
9234;SDS011;4652;42.716;23.218;2023-06-22T04:03:20;17.37;;;11.57;;
9234;SDS011;4652;42.716;23.218;2023-06-22T04:10:03;13.13;;;11.83;;
9234;SDS011;4652;42.716;23.218;2023-06-22T04:16:45;16.43;;;12.20;;
9234;SDS011;4652;42.716;23.218;2023-06-22T04:23:28;13.00;;;11.70;;
9234;SDS011;4652;42.716;23.218;2023-06-22T04:30:11;14.20;;;11.97;;
9234;SDS011;4652;42.716;23.218;2023-06-22T04:36:55;14.93;;;13.07;;
9234;SDS011;4652;42.716;23.218;2023-06-22T04:43:37;14.37;;;13.07;;
9234;SDS011;4652;42.716;23.218;2023-06-22T04:50:21;13.40;;;12.13;;
9234;SDS011;4652;42.716;23.218;2023-06-22T04:57:04;13.80;;;12.47;;
9234;SDS011;4652;42.716;23.218;2023-06-22T05:03:49;14.10;;;12.80;;
9234;SDS011;4652;42.716;23.218;2023-06-22T05:10:36;14.13;;;12.73;;
9234;SDS011;4652;42.716;23.218;2023-06-22T05:17:18;13.23;;;11.93;;
9234;SDS011;4652;42.716;23.218;2023-06-22T05:24:00;15.53;;;13.93;;
9234;SDS011;4652;42.716;23.218;2023-06-22T05:30:44;14.10;;;12.77;;
9234;SDS011;4652;42.716;23.218;2023-06-22T05:37:26;15.40;;;13.80;;
9234;SDS011;4652;42.716;23.218;2023-06-22T05:44:09;14.47;;;13.07;;
9234;SDS011;4652;42.716;23.218;2023-06-22T05:50:53;16.30;;;14.77;;
9234;SDS011;4652;42.716;23.218;2023-06-22T05:57:35;18.20;;;16.50;;
9234;SDS011;4652;42.716;23.218;2023-06-22T06:04:17;19.83;;;17.87;;
9234;SDS011;4652;42.716;23.218;2023-06-22T06:11:01;21.88;;;19.73;;
9234;SDS011;4652;42.716;23.218;2023-06-22T06:17:47;21.00;;;19.05;;
9234;SDS011;4652;42.716;23.218;2023-06-22T06:24:29;17.60;;;15.98;;
9234;SDS011;4652;42.716;23.218;2023-06-22T06:31:13;16.50;;;14.90;;
9234;SDS011;4652;42.716;23.218;2023-06-22T06:37:57;16.10;;;14.60;;
9234;SDS011;4652;42.716;23.218;2023-06-22T06:44:39;15.70;;;14.20;;
9234;SDS011;4652;42.716;23.218;2023-06-22T06:51:22;14.80;;;13.30;;
9234;SDS011;4652;42.716;23.218;2023-06-22T06:58:04;14.18;;;12.73;;
9234;SDS011;4652;42.716;23.218;2023-06-22T07:08:04;14.50;;;13.13;;
9234;SDS011;4652;42.716;23.218;2023-06-22T07:14:46;12.82;;;11.73;;
9234;SDS011;4652;42.716;23.218;2023-06-22T07:21:28;12.43;;;11.23;;
9234;SDS011;4652;42.716;23.218;2023-06-22T07:28:11;13.45;;;12.35;;
9234;SDS011;4652;42.716;23.218;2023-06-22T07:34:53;13.07;;;12.02;;
9234;SDS011;4652;42.716;23.218;2023-06-22T07:41:35;13.93;;;12.73;;
9234;SDS011;4652;42.716;23.218;2023-06-22T07:48:20;13.70;;;12.57;;
9234;SDS011;4652;42.716;23.218;2023-06-22T07:55:02;14.13;;;12.88;;
9234;SDS011;4652;42.716;23.218;2023-06-22T08:01:45;14.90;;;13.48;;
9234;SDS011;4652;42.716;23.218;2023-06-22T08:08:31;14.00;;;12.70;;
9234;SDS011;4652;42.716;23.218;2023-06-22T08:15:13;13.93;;;12.73;;
9234;SDS011;4652;42.716;23.218;2023-06-22T08:21:55;14.35;;;13.07;;
9234;SDS011;4652;42.716;23.218;2023-06-22T08:28:39;12.90;;;11.80;;
9234;SDS011;4652;42.716;23.218;2023-06-22T08:35:22;13.23;;;11.90;;
9234;SDS011;4652;42.716;23.218;2023-06-22T08:42:05;12.43;;;11.45;;
9234;SDS011;4652;42.716;23.218;2023-06-22T08:48:49;12.55;;;11.43;;
9234;SDS011;4652;42.716;23.218;2023-06-22T08:55:31;13.20;;;12.02;;
9234;SDS011;4652;42.716;23.218;2023-06-22T09:02:13;12.02;;;10.95;;
9234;SDS011;4652;42.716;23.218;2023-06-22T09:08:56;11.80;;;10.88;;
9234;SDS011;4652;42.716;23.218;2023-06-22T09:15:40;12.05;;;10.65;;
9234;SDS011;4652;42.716;23.218;2023-06-22T09:22:21;11.50;;;10.50;;
9234;SDS011;4652;42.716;23.218;2023-06-22T09:29:06;11.38;;;10.52;;
9234;SDS011;4652;42.716;23.218;2023-06-22T09:35:48;11.98;;;10.95;;
9234;SDS011;4652;42.716;23.218;2023-06-22T09:42:31;15.63;;;9.68;;
9234;SDS011;4652;42.716;23.218;2023-06-22T09:49:15;11.35;;;10.18;;
9234;SDS011;4652;42.716;23.218;2023-06-22T09:55:58;10.70;;;9.88;;
9234;SDS011;4652;42.716;23.218;2023-06-22T10:02:41;10.13;;;9.02;;
9234;SDS011;4652;42.716;23.218;2023-06-22T10:09:24;11.75;;;10.70;;
9234;SDS011;4652;42.716;23.218;2023-06-22T10:16:06;13.52;;;10.38;;
9234;SDS011;4652;42.716;23.218;2023-06-22T10:22:48;10.68;;;9.77;;
9234;SDS011;4652;42.716;23.218;2023-06-22T10:29:32;11.15;;;10.20;;
9234;SDS011;4652;42.716;23.218;2023-06-22T10:36:14;11.98;;;10.98;;
9234;SDS011;4652;42.716;23.218;2023-06-22T10:42:57;10.52;;;9.38;;
9234;SDS011;4652;42.716;23.218;2023-06-22T10:49:41;10.52;;;9.75;;
9234;SDS011;4652;42.716;23.218;2023-06-22T10:56:24;10.77;;;9.88;;
9234;SDS011;4652;42.716;23.218;2023-06-22T11:03:05;10.82;;;9.82;;
9234;SDS011;4652;42.716;23.218;2023-06-22T11:09:49;10.57;;;9.77;;
9234;SDS011;4652;42.716;23.218;2023-06-22T11:16:30;10.38;;;9.40;;
9234;SDS011;4652;42.716;23.218;2023-06-22T11:23:14;10.45;;;9.52;;
9234;SDS011;4652;42.716;23.218;2023-06-22T11:29:58;9.75;;;8.95;;
9234;SDS011;4652;42.716;23.218;2023-06-22T11:36:40;9.82;;;8.93;;
9234;SDS011;4652;42.716;23.218;2023-06-22T11:43:22;10.07;;;9.07;;
9234;SDS011;4652;42.716;23.218;2023-06-22T11:50:07;11.02;;;9.68;;
9234;SDS011;4652;42.716;23.218;2023-06-22T11:56:49;10.13;;;9.25;;
9234;SDS011;4652;42.716;23.218;2023-06-22T12:03:31;15.10;;;12.00;;
9234;SDS011;4652;42.716;23.218;2023-06-22T12:10:14;20.42;;;17.50;;
9234;SDS011;4652;42.716;23.218;2023-06-22T12:16:57;15.90;;;14.30;;
9234;SDS011;4652;42.716;23.218;2023-06-22T12:23:39;17.50;;;13.90;;
9234;SDS011;4652;42.716;23.218;2023-06-22T14:52:21;13.68;;;11.00;;
9234;SDS011;4652;42.716;23.218;2023-06-22T14:59:03;12.05;;;10.50;;
9234;SDS011;4652;42.716;23.218;2023-06-22T15:05:45;12.70;;;11.23;;
9234;SDS011;4652;42.716;23.218;2023-06-22T15:12:29;13.07;;;11.65;;
9234;SDS011;4652;42.716;23.218;2023-06-22T15:19:11;13.07;;;11.63;;
9234;SDS011;4652;42.716;23.218;2023-06-22T15:25:53;13.50;;;12.30;;
9234;SDS011;4652;42.716;23.218;2023-06-22T15:32:37;12.30;;;11.02;;
9234;SDS011;4652;42.716;23.218;2023-06-22T15:39:19;12.13;;;11.02;;
9234;SDS011;4652;42.716;23.218;2023-06-22T15:46:03;14.18;;;9.40;;
9234;SDS011;4652;42.716;23.218;2023-06-22T15:52:46;10.07;;;8.95;;
9234;SDS011;4652;42.716;23.218;2023-06-22T15:59:30;11.63;;;10.38;;
9234;SDS011;4652;42.716;23.218;2023-06-22T16:06:12;13.18;;;10.05;;
9234;SDS011;4652;42.716;23.218;2023-06-22T16:12:55;14.27;;;10.68;;
9234;SDS011;4652;42.716;23.218;2023-06-22T16:19:37;12.02;;;10.77;;
9234;SDS011;4652;42.716;23.218;2023-06-22T16:26:18;13.55;;;12.23;;
9234;SDS011;4652;42.716;23.218;2023-06-22T16:33:02;12.40;;;11.27;;
9234;SDS011;4652;42.716;23.218;2023-06-22T16:39:44;13.27;;;11.82;;
9234;SDS011;4652;42.716;23.218;2023-06-22T16:46:25;13.27;;;11.73;;
9234;SDS011;4652;42.716;23.218;2023-06-22T16:53:09;12.80;;;11.57;;
9234;SDS011;4652;42.716;23.218;2023-06-22T16:59:51;13.75;;;12.55;;
9234;SDS011;4652;42.716;23.218;2023-06-22T17:06:33;13.48;;;11.50;;
9234;SDS011;4652;42.716;23.218;2023-06-22T17:13:17;14.55;;;13.07;;
9234;SDS011;4652;42.716;23.218;2023-06-22T17:19:59;13.98;;;12.45;;
9234;SDS011;4652;42.716;23.218;2023-06-22T17:26:41;14.63;;;13.32;;
9234;SDS011;4652;42.716;23.218;2023-06-22T17:33:28;14.55;;;13.10;;
9234;SDS011;4652;42.716;23.218;2023-06-22T17:40:13;16.05;;;14.35;;
9234;SDS011;4652;42.716;23.218;2023-06-22T17:46:56;16.67;;;14.80;;
9234;SDS011;4652;42.716;23.218;2023-06-22T17:53:40;16.85;;;14.55;;
9234;SDS011;4652;42.716;23.218;2023-06-22T18:00:28;21.25;;;14.90;;
9234;SDS011;4652;42.716;23.218;2023-06-22T18:07:10;15.05;;;13.55;;
9234;SDS011;4652;42.716;23.218;2023-06-22T18:13:53;14.38;;;12.93;;
9234;SDS011;4652;42.716;23.218;2023-06-22T18:20:36;14.13;;;12.93;;
9234;SDS011;4652;42.716;23.218;2023-06-22T18:27:20;15.05;;;13.60;;
9234;SDS011;4652;42.716;23.218;2023-06-22T18:34:08;14.65;;;13.20;;
9234;SDS011;4652;42.716;23.218;2023-06-22T18:40:52;17.23;;;13.77;;
9234;SDS011;4652;42.716;23.218;2023-06-22T18:47:34;15.05;;;13.57;;
9234;SDS011;4652;42.716;23.218;2023-06-22T18:54:19;14.53;;;13.13;;
9234;SDS011;4652;42.716;23.218;2023-06-22T19:08:08;15.53;;;14.03;;
9234;SDS011;4652;42.716;23.218;2023-06-22T19:15:03;16.97;;;14.87;;
9234;SDS011;4652;42.716;23.218;2023-06-22T19:21:57;15.00;;;13.33;;
9234;SDS011;4652;42.716;23.218;2023-06-22T19:28:45;15.83;;;14.20;;
9234;SDS011;4652;42.716;23.218;2023-06-22T19:35:28;15.70;;;14.30;;
9234;SDS011;4652;42.716;23.218;2023-06-22T19:42:10;15.63;;;13.47;;
9234;SDS011;4652;42.716;23.218;2023-06-22T19:48:53;15.00;;;13.53;;
9234;SDS011;4652;42.716;23.218;2023-06-22T19:55:36;16.40;;;13.60;;
9234;SDS011;4652;42.716;23.218;2023-06-22T20:02:24;16.53;;;13.13;;
9234;SDS011;4652;42.716;23.218;2023-06-22T20:09:08;19.57;;;14.47;;
9234;SDS011;4652;42.716;23.218;2023-06-22T20:15:54;21.50;;;13.33;;
9234;SDS011;4652;42.716;23.218;2023-06-22T20:22:40;15.43;;;13.80;;
9234;SDS011;4652;42.716;23.218;2023-06-22T20:29:24;20.97;;;14.03;;
9234;SDS011;4652;42.716;23.218;2023-06-22T20:36:07;18.07;;;13.80;;
9234;SDS011;4652;42.716;23.218;2023-06-22T20:42:50;17.23;;;13.90;;
9234;SDS011;4652;42.716;23.218;2023-06-22T20:49:35;15.70;;;13.27;;
9234;SDS011;4652;42.716;23.218;2023-06-22T20:56:17;22.77;;;13.43;;
9234;SDS011;4652;42.716;23.218;2023-06-22T21:02:59;17.63;;;13.50;;
9234;SDS011;4652;42.716;23.218;2023-06-22T21:09:43;20.27;;;13.93;;
9234;SDS011;4652;42.716;23.218;2023-06-22T21:16:25;18.03;;;13.00;;
9234;SDS011;4652;42.716;23.218;2023-06-22T21:23:07;14.30;;;12.80;;
9234;SDS011;4652;42.716;23.218;2023-06-22T21:29:50;19.27;;;12.87;;
9234;SDS011;4652;42.716;23.218;2023-06-22T21:36:32;16.60;;;13.43;;
9234;SDS011;4652;42.716;23.218;2023-06-22T21:43:14;16.87;;;13.40;;
9234;SDS011;4652;42.716;23.218;2023-06-22T21:49:58;15.87;;;13.77;;
9234;SDS011;4652;42.716;23.218;2023-06-22T21:56:40;18.00;;;13.60;;
9234;SDS011;4652;42.716;23.218;2023-06-22T22:03:23;15.47;;;13.37;;
9234;SDS011;4652;42.716;23.218;2023-06-22T22:10:07;15.07;;;13.03;;
9234;SDS011;4652;42.716;23.218;2023-06-22T22:16:50;15.13;;;13.60;;
9234;SDS011;4652;42.716;23.218;2023-06-22T22:23:32;22.47;;;14.77;;
9234;SDS011;4652;42.716;23.218;2023-06-22T22:30:16;17.67;;;14.80;;
9234;SDS011;4652;42.716;23.218;2023-06-22T22:36:58;16.17;;;14.47;;
9234;SDS011;4652;42.716;23.218;2023-06-22T22:43:40;25.27;;;14.20;;
9234;SDS011;4652;42.716;23.218;2023-06-22T22:50:24;18.00;;;14.47;;
9234;SDS011;4652;42.716;23.218;2023-06-22T22:57:06;16.67;;;14.97;;
9234;SDS011;4652;42.716;23.218;2023-06-22T23:03:48;18.70;;;14.63;;
9234;SDS011;4652;42.716;23.218;2023-06-22T23:10:32;16.67;;;12.77;;
9234;SDS011;4652;42.716;23.218;2023-06-22T23:17:14;15.37;;;13.83;;
9234;SDS011;4652;42.716;23.218;2023-06-22T23:23:56;15.90;;;14.20;;
9234;SDS011;4652;42.716;23.218;2023-06-22T23:30:42;17.03;;;14.03;;
9234;SDS011;4652;42.716;23.218;2023-06-22T23:37:24;16.73;;;12.70;;
9234;SDS011;4652;42.716;23.218;2023-06-22T23:44:07;18.30;;;12.67;;
9234;SDS011;4652;42.716;23.218;2023-06-22T23:50:50;18.00;;;13.53;;
9234;SDS011;4652;42.716;23.218;2023-06-22T23:57:32;17.20;;;13.20;;
